Moby Aki — IBVV — position and weather

sailwx.info

Track history (hours):
 
Tides and Currents Weather Stations Pressure Air Temp Water Temp Dewpoint Dewpoint Depression Visibility Wind Speed Wind Dir Waves Ship Positions

Moby Aki

Last reported at 2014-Oct-31 18:29 UTC. Time now 2014-Oct-31 20:56 UTC.
Position N 40°55' E 009°31'.

Length 175 m; draft 6.9 m.

Type: Passenger vessel. MMSI: 247132400.

Date/timePositionNaut miles runAvg speedWind from/ knotsBaromVisibWave heightAir tempDewpointWater temp
2014-Oct-31 18:29N 40°55' E 009°31'0 0.0
2014-Oct-31 16:04N 40°55' E 009°31'0 0.0
2014-Oct-31 15:31N 40°55' E 009°31'0 0.0
2014-Oct-31 13:31N 40°55' E 009°31'0 0.0
2014-Oct-31 12:33N 40°55' E 009°31'0 0.0
2014-Oct-31 11:15N 40°55' E 009°31'0 0.0
2014-Oct-31 10:33N 40°55' E 009°31'0 0.0
2014-Oct-31 08:33N 40°55' E 009°31'0 0.0
2014-Oct-31 07:33N 40°55' E 009°31'0 0.0
2014-Oct-31 06:33N 40°55' E 009°31'12017.1
2014-Oct-30 23:33N 42°53' E 010°02'1919.1
2014-Oct-30 22:34N 43°12' E 010°08'1919.1
2014-Oct-30 21:33N 43°30' E 010°13'5 4.5
2014-Oct-30 20:32N 43°33' E 010°18'0 0.0
2014-Oct-30 19:31N 43°33' E 010°18'0 0.0
2014-Oct-30 18:31N 43°33' E 010°18'0 0.0
2014-Oct-30 17:31N 43°33' E 010°18'0 0.0
2014-Oct-30 16:31N 43°33' E 010°18'0 0.0
2014-Oct-30 15:31N 43°33' E 010°18'0 0.0
2014-Oct-30 14:33N 43°33' E 010°18'0 0.0
2014-Oct-30 13:33N 43°33' E 010°18'0 0.0
2014-Oct-30 12:33N 43°33' E 010°18'0 0.0
2014-Oct-30 11:33N 43°33' E 010°18'0 0.0
2014-Oct-30 10:33N 43°33' E 010°18'0 0.0
2014-Oct-30 09:32N 43°33' E 010°18'0 0.0
2014-Oct-30 08:32N 43°33' E 010°18'0 0.0
2014-Oct-30 07:32N 43°33' E 010°18'0 0.0
2014-Oct-30 06:29N 43°33' E 010°18'3 3.5
2014-Oct-30 05:33N 43°31' E 010°15'2019.6
2014-Oct-30 04:33N 43°12' E 010°08'139 7.0
2014-Oct-29 08:33N 40°55' E 009°31'0 0.0
2014-Oct-29 07:33N 40°55' E 009°31'0 0.0
2014-Oct-29 06:33N 40°55' E 009°31'12116.9
2014-Oct-28 23:23N 42°55' E 010°02'1619.0
2014-Oct-28 22:33N 43°10' E 010°07'1918.9
2014-Oct-28 21:33N 43°28' E 010°12'6 6.1
2014-Oct-28 20:31N 43°33' E 010°18'0 0.0
2014-Oct-28 19:31N 43°33' E 010°18'0 0.0
2014-Oct-28 18:31N 43°33' E 010°18'0 0.0
2014-Oct-28 17:33N 43°33' E 010°18'0 0.0
2014-Oct-28 16:33N 43°33' E 010°18'0 0.0
2014-Oct-28 15:34N 43°33' E 010°18'0 0.0
2014-Oct-28 14:33N 43°33' E 010°18'0 0.0
2014-Oct-28 13:34N 43°33' E 010°18'0 0.0
2014-Oct-28 12:34N 43°33' E 010°18'0 0.0
2014-Oct-28 11:33N 43°33' E 010°18'0 0.0
2014-Oct-28 10:33N 43°33' E 010°18'0 0.0
2014-Oct-28 09:33N 43°33' E 010°18'0 0.0
2014-Oct-28 08:33N 43°33' E 010°18'0 0.0
2014-Oct-28 07:33N 43°33' E 010°18'0 0.0
2014-Oct-28 06:33N 43°33' E 010°18'7 7.4
2014-Oct-28 05:33N 43°27' E 010°13'2019.7
2014-Oct-28 04:33N 43°08' E 010°06'13418.5
2014-Oct-27 21:19N 40°56' E 009°35'3 1.6
2014-Oct-27 19:33N 40°55' E 009°31'0 0.0
2014-Oct-27 18:33N 40°55' E 009°31'0 0.0
2014-Oct-27 16:33N 40°55' E 009°31'0 0.0
2014-Oct-27 12:33N 40°55' E 009°31'0 0.0
2014-Oct-27 08:21N 40°55' E 009°31'0 0.0
2014-Oct-27 07:33N 40°55' E 009°31'0 0.0
2014-Oct-27 06:33N 40°55' E 009°31'12617.1
2014-Oct-26 23:13N 42°59' E 010°04'1219.0
2014-Oct-26 22:34N 43°11' E 010°07'1918.9
2014-Oct-26 21:33N 43°29' E 010°13'5 5.4
2014-Oct-26 20:33N 43°33' E 010°18'0 0.0
2014-Oct-26 19:30N 43°33' E 010°18'0 0.0
2014-Oct-26 18:33N 43°33' E 010°18'0 0.0
2014-Oct-26 17:29N 43°33' E 010°18'0 0.0
2014-Oct-26 16:32N 43°33' E 010°18'0 0.0
2014-Oct-26 15:32N 43°33' E 010°18'0 0.0
2014-Oct-26 14:32N 43°33' E 010°18'0 0.0
2014-Oct-26 13:32N 43°33' E 010°18'0 0.0
2014-Oct-26 12:31N 43°33' E 010°18'0 0.0
2014-Oct-26 11:31N 43°33' E 010°18'0 0.0
2014-Oct-26 10:31N 43°33' E 010°18'0 0.0
2014-Oct-26 09:31N 43°33' E 010°18'0 0.0
2014-Oct-26 08:31N 43°33' E 010°18'0 0.0
2014-Oct-26 07:34N 43°33' E 010°18'0 0.0
2014-Oct-26 06:33N 43°33' E 010°18'1 1.4
2014-Oct-26 05:33N 43°32' E 010°17'1615.7
2014-Oct-26 04:33N 43°17' E 010°09'1818.3
2014-Oct-26 03:33N 42°59' E 010°04'12617.4
2014-Oct-25 20:18N 40°55' E 009°35'3 1.3
2014-Oct-25 18:21N 40°55' E 009°31'0 0.0
2014-Oct-25 17:32N 40°55' E 009°31'0 0.0
2014-Oct-25 16:08N 40°55' E 009°31'0 0.0
2014-Oct-25 15:32N 40°55' E 009°31'0 0.0
2014-Oct-25 14:32N 40°55' E 009°31'0 0.0
2014-Oct-25 13:29N 40°55' E 009°31'0 0.0
2014-Oct-25 12:32N 40°55' E 009°31'0 0.0
2014-Oct-25 11:04N 40°55' E 009°31'0 0.0
2014-Oct-25 10:31N 40°55' E 009°31'0 0.0
2014-Oct-25 07:34N 40°55' E 009°31'0 0.0
2014-Oct-25 05:33N 40°55' E 009°31'10516.8
2014-Oct-24 23:19N 42°38' E 009°58'1519.7
2014-Oct-24 22:33N 42°53' E 010°01'1919.3
2014-Oct-24 21:33N 43°12' E 010°08'1919.0
2014-Oct-24 20:33N 43°31' E 010°13'4 4.0
2014-Oct-24 19:27N 43°33' E 010°18'0 0.0
2014-Oct-24 18:30N 43°33' E 010°18'0 0.0
2014-Oct-24 17:32N 43°33' E 010°18'0 0.0
2014-Oct-24 16:29N 43°33' E 010°18'0 0.0
2014-Oct-24 15:32N 43°33' E 010°18'0 0.0
2014-Oct-24 14:32N 43°33' E 010°18'0 0.0
2014-Oct-24 13:32N 43°33' E 010°18'0 0.0
2014-Oct-24 12:31N 43°33' E 010°18'0 0.0
2014-Oct-24 11:31N 43°33' E 010°18'0 0.0
2014-Oct-24 10:31N 43°33' E 010°18'0 0.0
2014-Oct-24 09:31N 43°33' E 010°18'0 0.0
2014-Oct-24 08:31N 43°33' E 010°18'0 0.0
2014-Oct-24 07:28N 43°33' E 010°18'0 0.0
2014-Oct-24 06:33N 43°33' E 010°18'0 0.0
2014-Oct-24 05:33N 43°33' E 010°18'7 7.2
2014-Oct-24 04:33N 43°27' E 010°12'2019.8
2014-Oct-24 03:33N 43°08' E 010°05'2419.4
2014-Oct-24 02:19N 42°45' E 009°58'111 7.9
2014-Oct-23 12:20N 40°55' E 009°31'0 0.0
2014-Oct-23 10:16N 40°55' E 009°31'0 0.0
2014-Oct-23 09:31N 40°55' E 009°31'0 0.0
2014-Oct-23 08:07N 40°55' E 009°31'0 0.0
2014-Oct-23 07:31N 40°55' E 009°31'0 0.0
2014-Oct-23 06:19N 40°55' E 009°31'12515.5
2014-Oct-22 22:17N 42°58' E 010°00'1419.1
2014-Oct-22 21:33N 43°11' E 010°05'1919.2
2014-Oct-22 20:34N 43°30' E 010°11'6 5.6
2014-Oct-22 19:33N 43°33' E 010°18'0 0.0
2014-Oct-22 18:32N 43°33' E 010°18'0 0.0
2014-Oct-22 17:32N 43°33' E 010°18'0 0.0
2014-Oct-22 16:32N 43°33' E 010°18'0 0.0
2014-Oct-22 15:32N 43°33' E 010°18'0 0.0
2014-Oct-22 14:32N 43°33' E 010°18'0 0.0
2014-Oct-22 13:31N 43°33' E 010°18'0 0.0
2014-Oct-22 12:31N 43°33' E 010°18'0 0.0
2014-Oct-22 11:31N 43°33' E 010°18'0 0.0
2014-Oct-22 10:31N 43°33' E 010°18'0 0.0
2014-Oct-22 09:34N 43°33' E 010°18'0 0.0
2014-Oct-22 08:33N 43°33' E 010°18'0 0.0
2014-Oct-22 07:33N 43°33' E 010°18'0 0.0
2014-Oct-22 06:33N 43°33' E 010°18'0 0.0
2014-Oct-22 05:33N 43°33' E 010°18'9 9.0
2014-Oct-22 04:34N 43°26' E 010°11'1818.4
2014-Oct-22 03:34N 43°09' E 010°01'13418.9
2014-Oct-21 20:28N 40°56' E 009°38'5 4.9
2014-Oct-21 19:29N 40°55' E 009°31'  
Track history (hours):
 
Tides and Currents Weather Stations Pressure Air Temp Water Temp Dewpoint Dewpoint Depression Visibility Wind Speed Wind Dir Waves Ship Positions

Moby Aki

Last reported at 2014-Oct-31 18:29 UTC. Time now 2014-Oct-31 20:56 UTC.
Position N 40°55' E 009°31'.

Length 175 m; draft 6.9 m.

Type: Passenger vessel. MMSI: 247132400.

Date/timePositionNaut miles runAvg speedWind from/ knotsBaromVisibWave heightAir tempDewpointWater temp
2014-Oct-31 18:29N 40°55' E 009°31'0 0.0
2014-Oct-31 16:04N 40°55' E 009°31'0 0.0
2014-Oct-31 15:31N 40°55' E 009°31'0 0.0
2014-Oct-31 13:31N 40°55' E 009°31'0 0.0
2014-Oct-31 12:33N 40°55' E 009°31'0 0.0
2014-Oct-31 11:15N 40°55' E 009°31'0 0.0
2014-Oct-31 10:33N 40°55' E 009°31'0 0.0
2014-Oct-31 08:33N 40°55' E 009°31'0 0.0
2014-Oct-31 07:33N 40°55' E 009°31'0 0.0
2014-Oct-31 06:33N 40°55' E 009°31'12017.1
2014-Oct-30 23:33N 42°53' E 010°02'1919.1
2014-Oct-30 22:34N 43°12' E 010°08'1919.1
2014-Oct-30 21:33N 43°30' E 010°13'5 4.5
2014-Oct-30 20:32N 43°33' E 010°18'0 0.0
2014-Oct-30 19:31N 43°33' E 010°18'0 0.0
2014-Oct-30 18:31N 43°33' E 010°18'0 0.0
2014-Oct-30 17:31N 43°33' E 010°18'0 0.0
2014-Oct-30 16:31N 43°33' E 010°18'0 0.0
2014-Oct-30 15:31N 43°33' E 010°18'0 0.0
2014-Oct-30 14:33N 43°33' E 010°18'0 0.0
2014-Oct-30 13:33N 43°33' E 010°18'0 0.0
2014-Oct-30 12:33N 43°33' E 010°18'0 0.0
2014-Oct-30 11:33N 43°33' E 010°18'0 0.0
2014-Oct-30 10:33N 43°33' E 010°18'0 0.0
2014-Oct-30 09:32N 43°33' E 010°18'0 0.0
2014-Oct-30 08:32N 43°33' E 010°18'0 0.0
2014-Oct-30 07:32N 43°33' E 010°18'0 0.0
2014-Oct-30 06:29N 43°33' E 010°18'3 3.5
2014-Oct-30 05:33N 43°31' E 010°15'2019.6
2014-Oct-30 04:33N 43°12' E 010°08'139 7.0
2014-Oct-29 08:33N 40°55' E 009°31'0 0.0
2014-Oct-29 07:33N 40°55' E 009°31'0 0.0
2014-Oct-29 06:33N 40°55' E 009°31'12116.9
2014-Oct-28 23:23N 42°55' E 010°02'1619.0
2014-Oct-28 22:33N 43°10' E 010°07'1918.9
2014-Oct-28 21:33N 43°28' E 010°12'6 6.1
2014-Oct-28 20:31N 43°33' E 010°18'0 0.0
2014-Oct-28 19:31N 43°33' E 010°18'0 0.0
2014-Oct-28 18:31N 43°33' E 010°18'0 0.0
2014-Oct-28 17:33N 43°33' E 010°18'0 0.0
2014-Oct-28 16:33N 43°33' E 010°18'0 0.0
2014-Oct-28 15:34N 43°33' E 010°18'0 0.0
2014-Oct-28 14:33N 43°33' E 010°18'0 0.0
2014-Oct-28 13:34N 43°33' E 010°18'0 0.0
2014-Oct-28 12:34N 43°33' E 010°18'0 0.0
2014-Oct-28 11:33N 43°33' E 010°18'0 0.0
2014-Oct-28 10:33N 43°33' E 010°18'0 0.0
2014-Oct-28 09:33N 43°33' E 010°18'0 0.0
2014-Oct-28 08:33N 43°33' E 010°18'0 0.0
2014-Oct-28 07:33N 43°33' E 010°18'0 0.0
2014-Oct-28 06:33N 43°33' E 010°18'7 7.4
2014-Oct-28 05:33N 43°27' E 010°13'2019.7
2014-Oct-28 04:33N 43°08' E 010°06'13418.5
2014-Oct-27 21:19N 40°56' E 009°35'3 1.6
2014-Oct-27 19:33N 40°55' E 009°31'0 0.0
2014-Oct-27 18:33N 40°55' E 009°31'0 0.0
2014-Oct-27 16:33N 40°55' E 009°31'0 0.0
2014-Oct-27 12:33N 40°55' E 009°31'0 0.0
2014-Oct-27 08:21N 40°55' E 009°31'0 0.0
2014-Oct-27 07:33N 40°55' E 009°31'0 0.0
2014-Oct-27 06:33N 40°55' E 009°31'12617.1
2014-Oct-26 23:13N 42°59' E 010°04'1219.0
2014-Oct-26 22:34N 43°11' E 010°07'1918.9
2014-Oct-26 21:33N 43°29' E 010°13'5 5.4
2014-Oct-26 20:33N 43°33' E 010°18'0 0.0
2014-Oct-26 19:30N 43°33' E 010°18'0 0.0
2014-Oct-26 18:33N 43°33' E 010°18'0 0.0
2014-Oct-26 17:29N 43°33' E 010°18'0 0.0
2014-Oct-26 16:32N 43°33' E 010°18'0 0.0
2014-Oct-26 15:32N 43°33' E 010°18'0 0.0
2014-Oct-26 14:32N 43°33' E 010°18'0 0.0
2014-Oct-26 13:32N 43°33' E 010°18'0 0.0
2014-Oct-26 12:31N 43°33' E 010°18'0 0.0
2014-Oct-26 11:31N 43°33' E 010°18'0 0.0
2014-Oct-26 10:31N 43°33' E 010°18'0 0.0
2014-Oct-26 09:31N 43°33' E 010°18'0 0.0
2014-Oct-26 08:31N 43°33' E 010°18'0 0.0
2014-Oct-26 07:34N 43°33' E 010°18'0 0.0
2014-Oct-26 06:33N 43°33' E 010°18'1 1.4
2014-Oct-26 05:33N 43°32' E 010°17'1615.7
2014-Oct-26 04:33N 43°17' E 010°09'1818.3
2014-Oct-26 03:33N 42°59' E 010°04'12617.4
2014-Oct-25 20:18N 40°55' E 009°35'3 1.3
2014-Oct-25 18:21N 40°55' E 009°31'0 0.0
2014-Oct-25 17:32N 40°55' E 009°31'0 0.0
2014-Oct-25 16:08N 40°55' E 009°31'0 0.0
2014-Oct-25 15:32N 40°55' E 009°31'0 0.0
2014-Oct-25 14:32N 40°55' E 009°31'0 0.0
2014-Oct-25 13:29N 40°55' E 009°31'0 0.0
2014-Oct-25 12:32N 40°55' E 009°31'0 0.0
2014-Oct-25 11:04N 40°55' E 009°31'0 0.0
2014-Oct-25 10:31N 40°55' E 009°31'0 0.0
2014-Oct-25 07:34N 40°55' E 009°31'0 0.0
2014-Oct-25 05:33N 40°55' E 009°31'10516.8
2014-Oct-24 23:19N 42°38' E 009°58'1519.7
2014-Oct-24 22:33N 42°53' E 010°01'1919.3
2014-Oct-24 21:33N 43°12' E 010°08'1919.0
2014-Oct-24 20:33N 43°31' E 010°13'4 4.0
2014-Oct-24 19:27N 43°33' E 010°18'0 0.0
2014-Oct-24 18:30N 43°33' E 010°18'0 0.0
2014-Oct-24 17:32N 43°33' E 010°18'0 0.0
2014-Oct-24 16:29N 43°33' E 010°18'0 0.0
2014-Oct-24 15:32N 43°33' E 010°18'0 0.0
2014-Oct-24 14:32N 43°33' E 010°18'0 0.0
2014-Oct-24 13:32N 43°33' E 010°18'0 0.0
2014-Oct-24 12:31N 43°33' E 010°18'0 0.0
2014-Oct-24 11:31N 43°33' E 010°18'0 0.0
2014-Oct-24 10:31N 43°33' E 010°18'0 0.0
2014-Oct-24 09:31N 43°33' E 010°18'0 0.0
2014-Oct-24 08:31N 43°33' E 010°18'0 0.0
2014-Oct-24 07:28N 43°33' E 010°18'0 0.0
2014-Oct-24 06:33N 43°33' E 010°18'0 0.0
2014-Oct-24 05:33N 43°33' E 010°18'7 7.2
2014-Oct-24 04:33N 43°27' E 010°12'2019.8
2014-Oct-24 03:33N 43°08' E 010°05'2419.4
2014-Oct-24 02:19N 42°45' E 009°58'111 7.9
2014-Oct-23 12:20N 40°55' E 009°31'0 0.0
2014-Oct-23 10:16N 40°55' E 009°31'0 0.0
2014-Oct-23 09:31N 40°55' E 009°31'0 0.0
2014-Oct-23 08:07N 40°55' E 009°31'0 0.0
2014-Oct-23 07:31N 40°55' E 009°31'0 0.0
2014-Oct-23 06:19N 40°55' E 009°31'12515.5
2014-Oct-22 22:17N 42°58' E 010°00'1419.1
2014-Oct-22 21:33N 43°11' E 010°05'1919.2
2014-Oct-22 20:34N 43°30' E 010°11'6 5.6
2014-Oct-22 19:33N 43°33' E 010°18'0 0.0
2014-Oct-22 18:32N 43°33' E 010°18'0 0.0
2014-Oct-22 17:32N 43°33' E 010°18'0 0.0
2014-Oct-22 16:32N 43°33' E 010°18'0 0.0
2014-Oct-22 15:32N 43°33' E 010°18'0 0.0
2014-Oct-22 14:32N 43°33' E 010°18'0 0.0
2014-Oct-22 13:31N 43°33' E 010°18'0 0.0
2014-Oct-22 12:31N 43°33' E 010°18'0 0.0
2014-Oct-22 11:31N 43°33' E 010°18'0 0.0
2014-Oct-22 10:31N 43°33' E 010°18'0 0.0
2014-Oct-22 09:34N 43°33' E 010°18'0 0.0
2014-Oct-22 08:33N 43°33' E 010°18'0 0.0
2014-Oct-22 07:33N 43°33' E 010°18'0 0.0
2014-Oct-22 06:33N 43°33' E 010°18'0 0.0
2014-Oct-22 05:33N 43°33' E 010°18'9 9.0
2014-Oct-22 04:34N 43°26' E 010°11'1818.4
2014-Oct-22 03:34N 43°09' E 010°01'13418.9
2014-Oct-21 20:28N 40°56' E 009°38'5 4.9
2014-Oct-21 19:29N 40°55' E 009°31'  

Dump ship's entire track history